sensor_id;sensor_type;location;lat;lon;timestamp;temperature;humidity
23335;DHT22;11839;48.598;8.870;2023-04-15T00:00:35;5.70;99.90
23335;DHT22;11839;48.598;8.870;2023-04-15T00:03:02;5.70;99.90
23335;DHT22;11839;48.598;8.870;2023-04-15T00:05:29;6.00;99.90
23335;DHT22;11839;48.598;8.870;2023-04-15T00:07:58;5.80;99.90
23335;DHT22;11839;48.598;8.870;2023-04-15T00:10:25;5.90;99.90
23335;DHT22;11839;48.598;8.870;2023-04-15T00:12:53;5.70;99.90
23335;DHT22;11839;48.598;8.870;2023-04-15T00:15:19;5.50;99.90
23335;DHT22;11839;48.598;8.870;2023-04-15T00:17:49;5.40;99.90
23335;DHT22;11839;48.598;8.870;2023-04-15T00:20:17;5.50;99.90
23335;DHT22;11839;48.598;8.870;2023-04-15T00:22:44;5.40;99.90
23335;DHT22;11839;48.598;8.870;2023-04-15T00:25:12;5.30;99.90
23335;DHT22;11839;48.598;8.870;2023-04-15T00:27:39;5.40;99.90
23335;DHT22;11839;48.598;8.870;2023-04-15T00:30:07;5.10;99.90
23335;DHT22;11839;48.598;8.870;2023-04-15T00:32:34;5.00;99.90
23335;DHT22;11839;48.598;8.870;2023-04-15T00:35:01;4.90;99.90
23335;DHT22;11839;48.598;8.870;2023-04-15T00:37:28;5.20;99.90
23335;DHT22;11839;48.598;8.870;2023-04-15T00:39:55;5.30;99.90
23335;DHT22;11839;48.598;8.870;2023-04-15T00:42:24;5.10;99.90
23335;DHT22;11839;48.598;8.870;2023-04-15T00:44:51;4.90;99.90
23335;DHT22;11839;48.598;8.870;2023-04-15T00:47:18;4.80;99.90
23335;DHT22;11839;48.598;8.870;2023-04-15T00:49:45;5.20;99.90
23335;DHT22;11839;48.598;8.870;2023-04-15T00:52:12;5.20;99.90
23335;DHT22;11839;48.598;8.870;2023-04-15T00:54:39;5.20;99.90
23335;DHT22;11839;48.598;8.870;2023-04-15T00:57:07;5.40;99.90
23335;DHT22;11839;48.598;8.870;2023-04-15T00:59:35;5.40;99.90
23335;DHT22;11839;48.598;8.870;2023-04-15T01:02:02;5.40;99.90
23335;DHT22;11839;48.598;8.870;2023-04-15T01:04:29;5.50;99.90
23335;DHT22;11839;48.598;8.870;2023-04-15T01:06:56;5.80;99.90
23335;DHT22;11839;48.598;8.870;2023-04-15T01:09:23;5.80;99.90
23335;DHT22;11839;48.598;8.870;2023-04-15T01:11:50;5.70;99.90
23335;DHT22;11839;48.598;8.870;2023-04-15T01:14:17;5.80;99.90
23335;DHT22;11839;48.598;8.870;2023-04-15T01:16:45;5.70;99.90
23335;DHT22;11839;48.598;8.870;2023-04-15T01:19:13;5.90;99.90
23335;DHT22;11839;48.598;8.870;2023-04-15T01:21:42;6.20;99.90
23335;DHT22;11839;48.598;8.870;2023-04-15T01:24:10;6.20;99.90
23335;DHT22;11839;48.598;8.870;2023-04-15T01:26:38;6.10;99.90
23335;DHT22;11839;48.598;8.870;2023-04-15T01:29:05;5.90;99.90
23335;DHT22;11839;48.598;8.870;2023-04-15T01:31:33;5.90;99.90
23335;DHT22;11839;48.598;8.870;2023-04-15T01:34:00;5.80;99.90
23335;DHT22;11839;48.598;8.870;2023-04-15T01:36:27;5.60;99.90
23335;DHT22;11839;48.598;8.870;2023-04-15T01:38:55;5.50;99.90
23335;DHT22;11839;48.598;8.870;2023-04-15T01:41:24;5.40;99.90
23335;DHT22;11839;48.598;8.870;2023-04-15T01:43:53;5.40;99.90
23335;DHT22;11839;48.598;8.870;2023-04-15T01:46:20;5.30;99.90
23335;DHT22;11839;48.598;8.870;2023-04-15T01:48:47;5.10;99.90
23335;DHT22;11839;48.598;8.870;2023-04-15T01:51:13;5.20;99.90
23335;DHT22;11839;48.598;8.870;2023-04-15T01:53:41;5.50;99.90
23335;DHT22;11839;48.598;8.870;2023-04-15T01:56:07;5.40;99.90
23335;DHT22;11839;48.598;8.870;2023-04-15T01:58:34;5.40;99.90
23335;DHT22;11839;48.598;8.870;2023-04-15T02:01:03;5.20;99.90
23335;DHT22;11839;48.598;8.870;2023-04-15T02:03:29;4.80;99.90
23335;DHT22;11839;48.598;8.870;2023-04-15T02:05:56;4.80;99.90
23335;DHT22;11839;48.598;8.870;2023-04-15T02:08:23;5.00;99.90
23335;DHT22;11839;48.598;8.870;2023-04-15T02:10:50;5.20;99.90
23335;DHT22;11839;48.598;8.870;2023-04-15T02:13:17;5.20;99.90
23335;DHT22;11839;48.598;8.870;2023-04-15T02:15:46;5.10;99.90
23335;DHT22;11839;48.598;8.870;2023-04-15T02:18:15;5.10;99.90
23335;DHT22;11839;48.598;8.870;2023-04-15T02:20:42;5.40;99.90
23335;DHT22;11839;48.598;8.870;2023-04-15T02:23:09;4.90;99.90
23335;DHT22;11839;48.598;8.870;2023-04-15T02:25:36;4.70;99.90
23335;DHT22;11839;48.598;8.870;2023-04-15T02:28:04;4.90;99.90
23335;DHT22;11839;48.598;8.870;2023-04-15T02:30:31;5.30;99.90
23335;DHT22;11839;48.598;8.870;2023-04-15T02:32:59;5.50;99.90
23335;DHT22;11839;48.598;8.870;2023-04-15T02:35:27;5.40;99.90
23335;DHT22;11839;48.598;8.870;2023-04-15T02:37:54;5.40;99.90
23335;DHT22;11839;48.598;8.870;2023-04-15T02:40:21;5.20;99.90
23335;DHT22;11839;48.598;8.870;2023-04-15T02:42:48;5.30;99.90
23335;DHT22;11839;48.598;8.870;2023-04-15T02:45:15;5.30;99.90
23335;DHT22;11839;48.598;8.870;2023-04-15T02:47:44;5.30;99.90
23335;DHT22;11839;48.598;8.870;2023-04-15T02:50:12;5.00;99.90
23335;DHT22;11839;48.598;8.870;2023-04-15T02:52:41;5.10;99.90
23335;DHT22;11839;48.598;8.870;2023-04-15T02:55:09;5.20;99.90
23335;DHT22;11839;48.598;8.870;2023-04-15T02:57:36;5.40;99.90
23335;DHT22;11839;48.598;8.870;2023-04-15T03:00:04;5.20;99.90
23335;DHT22;11839;48.598;8.870;2023-04-15T03:02:34;4.90;99.90
23335;DHT22;11839;48.598;8.870;2023-04-15T03:05:01;4.90;99.90
23335;DHT22;11839;48.598;8.870;2023-04-15T03:07:27;4.80;99.90
23335;DHT22;11839;48.598;8.870;2023-04-15T03:09:55;4.90;99.90
23335;DHT22;11839;48.598;8.870;2023-04-15T03:12:22;4.60;99.90
23335;DHT22;11839;48.598;8.870;2023-04-15T03:14:49;4.50;99.90
23335;DHT22;11839;48.598;8.870;2023-04-15T03:17:16;4.40;99.90
23335;DHT22;11839;48.598;8.870;2023-04-15T03:19:43;4.80;99.90
23335;DHT22;11839;48.598;8.870;2023-04-15T03:22:10;5.10;99.90
23335;DHT22;11839;48.598;8.870;2023-04-15T03:24:36;5.40;99.90
23335;DHT22;11839;48.598;8.870;2023-04-15T03:27:04;5.60;99.90
23335;DHT22;11839;48.598;8.870;2023-04-15T03:29:32;5.30;99.90
23335;DHT22;11839;48.598;8.870;2023-04-15T03:31:59;5.10;99.90
23335;DHT22;11839;48.598;8.870;2023-04-15T03:34:26;5.00;99.90
23335;DHT22;11839;48.598;8.870;2023-04-15T03:36:53;4.80;99.90
23335;DHT22;11839;48.598;8.870;2023-04-15T03:39:19;4.70;99.90
23335;DHT22;11839;48.598;8.870;2023-04-15T03:41:46;4.50;99.90
23335;DHT22;11839;48.598;8.870;2023-04-15T03:44:14;4.50;99.90
23335;DHT22;11839;48.598;8.870;2023-04-15T03:46:41;4.20;99.90
23335;DHT22;11839;48.598;8.870;2023-04-15T03:49:09;4.20;99.90
23335;DHT22;11839;48.598;8.870;2023-04-15T03:51:36;4.20;99.90
23335;DHT22;11839;48.598;8.870;2023-04-15T03:54:03;4.10;99.90
23335;DHT22;11839;48.598;8.870;2023-04-15T03:56:30;4.20;99.90
23335;DHT22;11839;48.598;8.870;2023-04-15T03:58:56;4.30;99.90
23335;DHT22;11839;48.598;8.870;2023-04-15T04:01:24;4.50;99.90
23335;DHT22;11839;48.598;8.870;2023-04-15T04:03:51;4.70;99.90
23335;DHT22;11839;48.598;8.870;2023-04-15T04:06:18;4.60;99.90
23335;DHT22;11839;48.598;8.870;2023-04-15T04:08:45;4.70;99.90
23335;DHT22;11839;48.598;8.870;2023-04-15T04:11:12;4.60;99.90
23335;DHT22;11839;48.598;8.870;2023-04-15T04:13:39;4.60;99.90
23335;DHT22;11839;48.598;8.870;2023-04-15T04:16:06;4.80;99.90
23335;DHT22;11839;48.598;8.870;2023-04-15T04:18:34;4.90;99.90
23335;DHT22;11839;48.598;8.870;2023-04-15T04:21:01;4.80;99.90
23335;DHT22;11839;48.598;8.870;2023-04-15T04:23:28;4.80;99.90
23335;DHT22;11839;48.598;8.870;2023-04-15T04:25:54;5.20;99.90
23335;DHT22;11839;48.598;8.870;2023-04-15T04:28:22;5.00;99.90
23335;DHT22;11839;48.598;8.870;2023-04-15T04:30:49;5.00;99.90
23335;DHT22;11839;48.598;8.870;2023-04-15T04:33:16;4.80;99.90
23335;DHT22;11839;48.598;8.870;2023-04-15T04:35:44;4.90;99.90
23335;DHT22;11839;48.598;8.870;2023-04-15T04:38:11;5.20;99.90
23335;DHT22;11839;48.598;8.870;2023-04-15T04:40:38;5.00;99.90
23335;DHT22;11839;48.598;8.870;2023-04-15T04:43:04;4.50;99.90
23335;DHT22;11839;48.598;8.870;2023-04-15T04:45:31;4.30;99.90
23335;DHT22;11839;48.598;8.870;2023-04-15T04:47:58;4.30;99.90
23335;DHT22;11839;48.598;8.870;2023-04-15T04:50:25;4.30;99.90
23335;DHT22;11839;48.598;8.870;2023-04-15T04:52:53;3.90;99.90
23335;DHT22;11839;48.598;8.870;2023-04-15T04:55:20;3.60;99.90
23335;DHT22;11839;48.598;8.870;2023-04-15T04:57:46;3.50;99.90
23335;DHT22;11839;48.598;8.870;2023-04-15T05:00:13;3.80;99.90
23335;DHT22;11839;48.598;8.870;2023-04-15T05:02:40;4.20;99.90
23335;DHT22;11839;48.598;8.870;2023-04-15T05:05:08;4.50;99.90
23335;DHT22;11839;48.598;8.870;2023-04-15T05:07:36;4.40;99.90
23335;DHT22;11839;48.598;8.870;2023-04-15T05:10:05;4.70;99.90
23335;DHT22;11839;48.598;8.870;2023-04-15T05:12:32;4.80;99.90
23335;DHT22;11839;48.598;8.870;2023-04-15T05:14:59;4.70;99.90
23335;DHT22;11839;48.598;8.870;2023-04-15T05:17:25;4.30;99.90
23335;DHT22;11839;48.598;8.870;2023-04-15T05:19:54;4.50;99.90
23335;DHT22;11839;48.598;8.870;2023-04-15T05:22:20;4.70;99.90
23335;DHT22;11839;48.598;8.870;2023-04-15T05:24:47;4.50;99.90
23335;DHT22;11839;48.598;8.870;2023-04-15T05:27:15;4.60;99.90
23335;DHT22;11839;48.598;8.870;2023-04-15T05:29:43;4.60;99.90
23335;DHT22;11839;48.598;8.870;2023-04-15T05:32:10;5.00;99.90
23335;DHT22;11839;48.598;8.870;2023-04-15T05:34:37;5.10;99.90
23335;DHT22;11839;48.598;8.870;2023-04-15T05:37:04;5.10;99.90
23335;DHT22;11839;48.598;8.870;2023-04-15T05:39:30;5.10;99.90
23335;DHT22;11839;48.598;8.870;2023-04-15T05:41:58;5.10;99.90
23335;DHT22;11839;48.598;8.870;2023-04-15T05:44:26;5.00;99.90
23335;DHT22;11839;48.598;8.870;2023-04-15T05:46:53;4.90;99.90
23335;DHT22;11839;48.598;8.870;2023-04-15T05:49:20;4.80;99.90
23335;DHT22;11839;48.598;8.870;2023-04-15T05:51:47;5.20;99.90
23335;DHT22;11839;48.598;8.870;2023-04-15T05:54:13;5.30;99.90
23335;DHT22;11839;48.598;8.870;2023-04-15T05:56:40;5.40;99.90
23335;DHT22;11839;48.598;8.870;2023-04-15T05:59:07;5.10;99.90
23335;DHT22;11839;48.598;8.870;2023-04-15T06:01:35;4.90;99.90
23335;DHT22;11839;48.598;8.870;2023-04-15T06:04:02;5.30;99.90
23335;DHT22;11839;48.598;8.870;2023-04-15T06:06:29;5.20;99.90
23335;DHT22;11839;48.598;8.870;2023-04-15T06:08:56;5.30;99.90
23335;DHT22;11839;48.598;8.870;2023-04-15T06:11:24;5.40;99.90
23335;DHT22;11839;48.598;8.870;2023-04-15T06:13:51;5.40;99.90
23335;DHT22;11839;48.598;8.870;2023-04-15T06:16:18;5.50;99.90
23335;DHT22;11839;48.598;8.870;2023-04-15T06:18:46;5.80;99.90
23335;DHT22;11839;48.598;8.870;2023-04-15T06:21:13;6.00;99.90
23335;DHT22;11839;48.598;8.870;2023-04-15T06:23:40;6.00;99.90
23335;DHT22;11839;48.598;8.870;2023-04-15T06:26:07;5.90;99.90
23335;DHT22;11839;48.598;8.870;2023-04-15T06:28:34;5.80;99.90
23335;DHT22;11839;48.598;8.870;2023-04-15T06:31:00;6.00;99.90
23335;DHT22;11839;48.598;8.870;2023-04-15T06:33:28;6.10;99.90
23335;DHT22;11839;48.598;8.870;2023-04-15T06:35:56;6.10;99.90
23335;DHT22;11839;48.598;8.870;2023-04-15T06:38:23;5.70;99.90
23335;DHT22;11839;48.598;8.870;2023-04-15T06:40:50;5.50;99.90
23335;DHT22;11839;48.598;8.870;2023-04-15T06:43:17;5.50;99.90
23335;DHT22;11839;48.598;8.870;2023-04-15T06:45:44;5.70;99.90
23335;DHT22;11839;48.598;8.870;2023-04-15T06:48:11;6.10;99.90
23335;DHT22;11839;48.598;8.870;2023-04-15T06:50:38;6.40;99.90
23335;DHT22;11839;48.598;8.870;2023-04-15T06:53:06;6.30;99.90
23335;DHT22;11839;48.598;8.870;2023-04-15T06:55:33;5.90;99.90
23335;DHT22;11839;48.598;8.870;2023-04-15T06:57:59;5.90;99.90
23335;DHT22;11839;48.598;8.870;2023-04-15T07:00:26;5.90;99.90
23335;DHT22;11839;48.598;8.870;2023-04-15T07:02:54;5.90;99.90
23335;DHT22;11839;48.598;8.870;2023-04-15T07:05:21;6.40;99.90
23335;DHT22;11839;48.598;8.870;2023-04-15T07:07:47;6.80;99.90
23335;DHT22;11839;48.598;8.870;2023-04-15T07:10:16;7.30;99.90
23335;DHT22;11839;48.598;8.870;2023-04-15T07:12:42;7.20;99.90
23335;DHT22;11839;48.598;8.870;2023-04-15T07:15:10;7.40;99.90
23335;DHT22;11839;48.598;8.870;2023-04-15T07:17:37;7.60;99.90
23335;DHT22;11839;48.598;8.870;2023-04-15T07:20:04;7.60;99.90
23335;DHT22;11839;48.598;8.870;2023-04-15T07:22:32;7.90;99.90
23335;DHT22;11839;48.598;8.870;2023-04-15T07:24:59;8.40;99.30
23335;DHT22;11839;48.598;8.870;2023-04-15T07:27:27;8.20;99.50
23335;DHT22;11839;48.598;8.870;2023-04-15T07:29:53;8.70;99.10
23335;DHT22;11839;48.598;8.870;2023-04-15T07:32:20;9.10;98.40
23335;DHT22;11839;48.598;8.870;2023-04-15T07:34:47;9.10;98.30
23335;DHT22;11839;48.598;8.870;2023-04-15T07:37:14;9.20;97.60
23335;DHT22;11839;48.598;8.870;2023-04-15T07:39:41;9.60;97.90
23335;DHT22;11839;48.598;8.870;2023-04-15T07:42:09;9.80;97.60
23335;DHT22;11839;48.598;8.870;2023-04-15T07:44:37;9.70;97.70
23335;DHT22;11839;48.598;8.870;2023-04-15T07:47:04;9.50;98.00
23335;DHT22;11839;48.598;8.870;2023-04-15T07:49:31;9.80;98.10
23335;DHT22;11839;48.598;8.870;2023-04-15T07:51:58;10.00;97.10
23335;DHT22;11839;48.598;8.870;2023-04-15T07:54:25;9.80;98.00
23335;DHT22;11839;48.598;8.870;2023-04-15T07:56:51;9.60;98.40
23335;DHT22;11839;48.598;8.870;2023-04-15T07:59:18;9.90;98.10
23335;DHT22;11839;48.598;8.870;2023-04-15T08:01:47;9.90;98.40
23335;DHT22;11839;48.598;8.870;2023-04-15T08:04:14;10.20;97.60
23335;DHT22;11839;48.598;8.870;2023-04-15T08:06:41;10.70;97.70
23335;DHT22;11839;48.598;8.870;2023-04-15T08:09:08;11.10;96.90
23335;DHT22;11839;48.598;8.870;2023-04-15T08:11:35;11.40;96.10
23335;DHT22;11839;48.598;8.870;2023-04-15T08:14:02;11.30;96.30
23335;DHT22;11839;48.598;8.870;2023-04-15T08:16:29;11.20;96.60
23335;DHT22;11839;48.598;8.870;2023-04-15T08:18:57;10.90;96.80
23335;DHT22;11839;48.598;8.870;2023-04-15T08:21:24;11.30;96.70
23335;DHT22;11839;48.598;8.870;2023-04-15T08:23:52;11.70;96.40
23335;DHT22;11839;48.598;8.870;2023-04-15T08:26:20;11.60;96.00
23335;DHT22;11839;48.598;8.870;2023-04-15T08:28:47;11.80;96.20
23335;DHT22;11839;48.598;8.870;2023-04-15T08:31:16;11.90;95.80
23335;DHT22;11839;48.598;8.870;2023-04-15T08:33:43;12.10;95.70
23335;DHT22;11839;48.598;8.870;2023-04-15T08:36:11;12.10;95.70
23335;DHT22;11839;48.598;8.870;2023-04-15T08:38:39;12.20;95.80
23335;DHT22;11839;48.598;8.870;2023-04-15T08:41:11;12.00;95.30
23335;DHT22;11839;48.598;8.870;2023-04-15T08:43:48;11.80;96.00
23335;DHT22;11839;48.598;8.870;2023-04-15T08:46:17;11.90;95.90
23335;DHT22;11839;48.598;8.870;2023-04-15T08:48:47;12.20;95.70
23335;DHT22;11839;48.598;8.870;2023-04-15T08:51:15;12.30;95.20
23335;DHT22;11839;48.598;8.870;2023-04-15T08:53:43;12.50;94.70
23335;DHT22;11839;48.598;8.870;2023-04-15T08:56:13;12.90;94.70
23335;DHT22;11839;48.598;8.870;2023-04-15T08:58:40;12.50;94.80
23335;DHT22;11839;48.598;8.870;2023-04-15T09:01:07;12.60;94.80
23335;DHT22;11839;48.598;8.870;2023-04-15T09:03:34;12.50;94.90
23335;DHT22;11839;48.598;8.870;2023-04-15T09:06:03;12.70;94.90
23335;DHT22;11839;48.598;8.870;2023-04-15T09:08:31;13.20;93.50
23335;DHT22;11839;48.598;8.870;2023-04-15T09:10:59;13.50;92.70
23335;DHT22;11839;48.598;8.870;2023-04-15T09:13:25;13.50;93.30
23335;DHT22;11839;48.598;8.870;2023-04-15T09:15:52;13.80;92.50
23335;DHT22;11839;48.598;8.870;2023-04-15T09:18:30;14.00;92.50
23335;DHT22;11839;48.598;8.870;2023-04-15T09:21:03;14.10;92.90
23335;DHT22;11839;48.598;8.870;2023-04-15T09:23:32;14.20;92.60
23335;DHT22;11839;48.598;8.870;2023-04-15T09:26:00;14.60;92.40
23335;DHT22;11839;48.598;8.870;2023-04-15T09:28:28;14.90;92.70
23335;DHT22;11839;48.598;8.870;2023-04-15T09:30:55;14.70;92.00
23335;DHT22;11839;48.598;8.870;2023-04-15T09:33:23;14.40;92.90
23335;DHT22;11839;48.598;8.870;2023-04-15T09:35:58;14.30;92.50
23335;DHT22;11839;48.598;8.870;2023-04-15T09:38:25;14.90;92.50
23335;DHT22;11839;48.598;8.870;2023-04-15T09:40:54;15.20;92.10
23335;DHT22;11839;48.598;8.870;2023-04-15T09:43:21;15.30;92.10
23335;DHT22;11839;48.598;8.870;2023-04-15T09:45:49;15.30;92.50
23335;DHT22;11839;48.598;8.870;2023-04-15T09:48:18;15.80;91.80
23335;DHT22;11839;48.598;8.870;2023-04-15T09:50:45;15.90;91.80
23335;DHT22;11839;48.598;8.870;2023-04-15T09:53:16;16.60;91.30
23335;DHT22;11839;48.598;8.870;2023-04-15T09:55:44;17.10;90.00
23335;DHT22;11839;48.598;8.870;2023-04-15T09:58:18;16.30;89.90
23335;DHT22;11839;48.598;8.870;2023-04-15T10:00:47;16.30;90.40
23335;DHT22;11839;48.598;8.870;2023-04-15T10:03:17;16.50;89.20
23335;DHT22;11839;48.598;8.870;2023-04-15T10:05:45;16.50;88.50
23335;DHT22;11839;48.598;8.870;2023-04-15T10:08:13;17.00;86.30
23335;DHT22;11839;48.598;8.870;2023-04-15T10:10:40;17.00;84.70
23335;DHT22;11839;48.598;8.870;2023-04-15T10:13:08;17.00;81.10
23335;DHT22;11839;48.598;8.870;2023-04-15T10:15:37;17.00;80.10
23335;DHT22;11839;48.598;8.870;2023-04-15T10:18:04;17.60;79.50
23335;DHT22;11839;48.598;8.870;2023-04-15T10:20:34;17.50;76.50
23335;DHT22;11839;48.598;8.870;2023-04-15T10:23:01;16.50;72.70
23335;DHT22;11839;48.598;8.870;2023-04-15T10:25:28;15.90;74.30
23335;DHT22;11839;48.598;8.870;2023-04-15T10:27:56;16.20;77.50
23335;DHT22;11839;48.598;8.870;2023-04-15T10:30:24;16.70;75.10
23335;DHT22;11839;48.598;8.870;2023-04-15T10:32:52;16.40;76.90
23335;DHT22;11839;48.598;8.870;2023-04-15T10:35:20;16.00;78.10
23335;DHT22;11839;48.598;8.870;2023-04-15T10:37:47;16.00;78.30
23335;DHT22;11839;48.598;8.870;2023-04-15T10:40:28;16.30;75.70
23335;DHT22;11839;48.598;8.870;2023-04-15T10:42:57;16.30;72.00
23335;DHT22;11839;48.598;8.870;2023-04-15T10:45:28;16.10;68.90
23335;DHT22;11839;48.598;8.870;2023-04-15T10:48:01;16.00;70.20
23335;DHT22;11839;48.598;8.870;2023-04-15T10:50:30;16.10;67.30
23335;DHT22;11839;48.598;8.870;2023-04-15T10:52:57;16.10;70.30
23335;DHT22;11839;48.598;8.870;2023-04-15T10:55:25;16.10;69.30
23335;DHT22;11839;48.598;8.870;2023-04-15T10:57:53;16.00;69.70
23335;DHT22;11839;48.598;8.870;2023-04-15T11:00:24;16.50;69.40
23335;DHT22;11839;48.598;8.870;2023-04-15T11:02:53;16.30;66.50
23335;DHT22;11839;48.598;8.870;2023-04-15T11:05:22;15.90;63.30
23335;DHT22;11839;48.598;8.870;2023-04-15T11:08:09;15.70;62.90
23335;DHT22;11839;48.598;8.870;2023-04-15T11:10:52;15.80;64.00
23335;DHT22;11839;48.598;8.870;2023-04-15T11:13:28;15.50;65.50
23335;DHT22;11839;48.598;8.870;2023-04-15T11:15:57;15.50;63.70
23335;DHT22;11839;48.598;8.870;2023-04-15T11:18:27;15.50;66.00
23335;DHT22;11839;48.598;8.870;2023-04-15T11:20:57;15.90;67.20
23335;DHT22;11839;48.598;8.870;2023-04-15T11:23:38;16.20;69.10
23335;DHT22;11839;48.598;8.870;2023-04-15T11:26:06;15.80;67.00
23335;DHT22;11839;48.598;8.870;2023-04-15T11:28:37;15.30;69.30
23335;DHT22;11839;48.598;8.870;2023-04-15T11:31:09;15.30;70.20
23335;DHT22;11839;48.598;8.870;2023-04-15T11:33:37;15.30;69.90
23335;DHT22;11839;48.598;8.870;2023-04-15T11:36:06;15.00;70.80
23335;DHT22;11839;48.598;8.870;2023-04-15T11:38:33;14.80;73.50
23335;DHT22;11839;48.598;8.870;2023-04-15T11:41:00;14.40;75.20
23335;DHT22;11839;48.598;8.870;2023-04-15T11:43:27;14.30;77.20
23335;DHT22;11839;48.598;8.870;2023-04-15T11:46:00;14.30;77.10
23335;DHT22;11839;48.598;8.870;2023-04-15T11:48:28;14.30;76.80
23335;DHT22;11839;48.598;8.870;2023-04-15T11:50:56;14.10;76.60
23335;DHT22;11839;48.598;8.870;2023-04-15T11:53:35;14.20;75.80
23335;DHT22;11839;48.598;8.870;2023-04-15T11:56:03;14.30;74.70
23335;DHT22;11839;48.598;8.870;2023-04-15T11:58:30;14.50;74.00
23335;DHT22;11839;48.598;8.870;2023-04-15T12:00:58;14.90;74.70
23335;DHT22;11839;48.598;8.870;2023-04-15T12:03:26;15.30;72.10
23335;DHT22;11839;48.598;8.870;2023-04-15T12:06:10;15.40;72.30
23335;DHT22;11839;48.598;8.870;2023-04-15T12:08:52;15.50;73.60
23335;DHT22;11839;48.598;8.870;2023-04-15T12:11:19;15.60;73.70
23335;DHT22;11839;48.598;8.870;2023-04-15T12:13:47;15.40;74.60
23335;DHT22;11839;48.598;8.870;2023-04-15T12:16:16;15.60;76.00
23335;DHT22;11839;48.598;8.870;2023-04-15T12:18:44;15.30;76.70
23335;DHT22;11839;48.598;8.870;2023-04-15T12:21:12;15.20;76.30
23335;DHT22;11839;48.598;8.870;2023-04-15T12:23:46;15.30;78.90
23335;DHT22;11839;48.598;8.870;2023-04-15T12:26:14;15.50;76.90
23335;DHT22;11839;48.598;8.870;2023-04-15T12:28:41;15.70;77.60
23335;DHT22;11839;48.598;8.870;2023-04-15T12:31:09;15.70;80.60
23335;DHT22;11839;48.598;8.870;2023-04-15T12:33:37;15.70;78.70
23335;DHT22;11839;48.598;8.870;2023-04-15T12:36:05;15.50;75.90
23335;DHT22;11839;48.598;8.870;2023-04-15T12:38:31;15.50;75.40
23335;DHT22;11839;48.598;8.870;2023-04-15T12:40:58;15.70;73.70
23335;DHT22;11839;48.598;8.870;2023-04-15T12:43:26;16.00;74.10
23335;DHT22;11839;48.598;8.870;2023-04-15T12:45:53;16.00;75.60
23335;DHT22;11839;48.598;8.870;2023-04-15T12:48:20;15.70;71.50
23335;DHT22;11839;48.598;8.870;2023-04-15T12:50:46;15.70;72.60
23335;DHT22;11839;48.598;8.870;2023-04-15T12:53:13;15.80;72.50
23335;DHT22;11839;48.598;8.870;2023-04-15T12:55:40;15.80;74.90
23335;DHT22;11839;48.598;8.870;2023-04-15T12:58:07;15.70;74.90
23335;DHT22;11839;48.598;8.870;2023-04-15T13:00:35;15.40;78.20
23335;DHT22;11839;48.598;8.870;2023-04-15T13:03:02;15.20;77.00
23335;DHT22;11839;48.598;8.870;2023-04-15T13:05:28;14.80;78.90
23335;DHT22;11839;48.598;8.870;2023-04-15T13:07:55;14.80;81.00
23335;DHT22;11839;48.598;8.870;2023-04-15T13:10:22;15.00;79.90
23335;DHT22;11839;48.598;8.870;2023-04-15T13:12:49;14.80;76.10
23335;DHT22;11839;48.598;8.870;2023-04-15T13:15:18;15.00;75.70
23335;DHT22;11839;48.598;8.870;2023-04-15T13:17:47;15.30;77.10
23335;DHT22;11839;48.598;8.870;2023-04-15T13:20:14;15.70;76.10
23335;DHT22;11839;48.598;8.870;2023-04-15T13:22:41;16.10;74.40
23335;DHT22;11839;48.598;8.870;2023-04-15T13:25:09;15.60;73.50
23335;DHT22;11839;48.598;8.870;2023-04-15T13:27:36;15.30;73.40
23335;DHT22;11839;48.598;8.870;2023-04-15T13:30:03;15.30;71.30
23335;DHT22;11839;48.598;8.870;2023-04-15T13:32:30;15.40;71.00
23335;DHT22;11839;48.598;8.870;2023-04-15T13:34:58;15.50;74.90
23335;DHT22;11839;48.598;8.870;2023-04-15T13:37:25;15.50;73.60
23335;DHT22;11839;48.598;8.870;2023-04-15T13:39:53;15.50;74.50
23335;DHT22;11839;48.598;8.870;2023-04-15T13:42:20;15.30;70.90
23335;DHT22;11839;48.598;8.870;2023-04-15T13:44:48;15.10;72.40
23335;DHT22;11839;48.598;8.870;2023-04-15T13:47:15;14.80;69.00
23335;DHT22;11839;48.598;8.870;2023-04-15T13:49:42;14.60;67.10
23335;DHT22;11839;48.598;8.870;2023-04-15T13:52:11;14.20;67.10
23335;DHT22;11839;48.598;8.870;2023-04-15T13:54:38;14.20;68.20
23335;DHT22;11839;48.598;8.870;2023-04-15T13:57:05;14.20;71.60
23335;DHT22;11839;48.598;8.870;2023-04-15T13:59:32;14.30;79.20
23335;DHT22;11839;48.598;8.870;2023-04-15T14:01:59;14.10;83.90
23335;DHT22;11839;48.598;8.870;2023-04-15T14:04:25;13.80;85.10
23335;DHT22;11839;48.598;8.870;2023-04-15T14:06:52;13.50;86.10
23335;DHT22;11839;48.598;8.870;2023-04-15T14:09:20;13.60;86.70
23335;DHT22;11839;48.598;8.870;2023-04-15T14:11:48;13.50;85.60
23335;DHT22;11839;48.598;8.870;2023-04-15T14:14:15;13.50;83.40
23335;DHT22;11839;48.598;8.870;2023-04-15T14:16:42;13.70;82.50
23335;DHT22;11839;48.598;8.870;2023-04-15T14:19:08;13.80;82.60
23335;DHT22;11839;48.598;8.870;2023-04-15T14:21:35;14.00;82.10
23335;DHT22;11839;48.598;8.870;2023-04-15T14:24:02;13.90;80.10
23335;DHT22;11839;48.598;8.870;2023-04-15T14:26:30;13.80;80.20
23335;DHT22;11839;48.598;8.870;2023-04-15T14:28:57;14.20;80.70
23335;DHT22;11839;48.598;8.870;2023-04-15T14:31:24;14.20;80.40
23335;DHT22;11839;48.598;8.870;2023-04-15T14:33:51;14.20;79.90
23335;DHT22;11839;48.598;8.870;2023-04-15T14:36:17;14.10;80.50
23335;DHT22;11839;48.598;8.870;2023-04-15T14:38:44;14.20;79.60
23335;DHT22;11839;48.598;8.870;2023-04-15T14:41:11;14.20;80.80
23335;DHT22;11839;48.598;8.870;2023-04-15T14:43:39;14.60;79.90
23335;DHT22;11839;48.598;8.870;2023-04-15T14:46:06;14.50;79.30
23335;DHT22;11839;48.598;8.870;2023-04-15T14:48:33;14.30;81.30
23335;DHT22;11839;48.598;8.870;2023-04-15T14:51:00;14.30;82.10
23335;DHT22;11839;48.598;8.870;2023-04-15T14:53:27;14.20;81.70
23335;DHT22;11839;48.598;8.870;2023-04-15T14:55:53;13.80;80.00
23335;DHT22;11839;48.598;8.870;2023-04-15T14:58:20;13.60;78.00
23335;DHT22;11839;48.598;8.870;2023-04-15T15:00:48;13.60;76.00
23335;DHT22;11839;48.598;8.870;2023-04-15T15:03:15;13.60;75.70
23335;DHT22;11839;48.598;8.870;2023-04-15T15:05:44;13.50;76.50
23335;DHT22;11839;48.598;8.870;2023-04-15T15:08:11;13.40;76.80
23335;DHT22;11839;48.598;8.870;2023-04-15T15:10:39;13.40;76.90
23335;DHT22;11839;48.598;8.870;2023-04-15T15:13:08;13.40;75.70
23335;DHT22;11839;48.598;8.870;2023-04-15T15:15:36;13.30;77.20
23335;DHT22;11839;48.598;8.870;2023-04-15T15:18:04;13.40;78.40
23335;DHT22;11839;48.598;8.870;2023-04-15T15:20:31;13.50;78.80
23335;DHT22;11839;48.598;8.870;2023-04-15T15:22:58;13.60;79.20
23335;DHT22;11839;48.598;8.870;2023-04-15T15:25:25;13.70;79.00
23335;DHT22;11839;48.598;8.870;2023-04-15T15:27:52;13.60;79.10
23335;DHT22;11839;48.598;8.870;2023-04-15T15:30:19;13.40;80.90
23335;DHT22;11839;48.598;8.870;2023-04-15T15:32:46;13.30;81.70
23335;DHT22;11839;48.598;8.870;2023-04-15T15:35:14;13.40;82.70
23335;DHT22;11839;48.598;8.870;2023-04-15T15:37:41;13.70;82.60
23335;DHT22;11839;48.598;8.870;2023-04-15T15:40:09;13.70;82.20